Time;durP1;ratioP1;P1;durP2;ratioP2;P2;SDS_P1;SDS_P2;PMS_P1;PMS_P2;Temp;Humidity;BMP_temperature;BMP_pressure;BME280_temperature;BME280_humidity;BME280_pressure;Samples;Min_cycle;Max_cycle;Signal;HPM_P1;HPM_P2
2023/03/31 00:00:22;;;;;;;2.03;1.30;;;19.50;52.60;;;;;;5050538;28;20228;-55
2023/03/31 00:02:54;;;;;;;2.75;1.23;;;19.60;52.70;;;;;;5034620;28;20224;-56
2023/03/31 00:05:25;;;;;;;2.88;1.60;;;19.60;53.30;;;;;;5034175;28;20208;-54
2023/03/31 00:07:59;;;;;;;3.28;1.40;;;19.60;52.80;;;;;;5045027;28;20187;-56
2023/03/31 00:10:30;;;;;;;3.35;1.55;;;19.70;52.80;;;;;;5054754;28;20738;-55
2023/03/31 00:13:01;;;;;;;1.98;0.90;;;19.70;52.80;;;;;;5040079;28;20682;-53
2023/03/31 00:15:34;;;;;;;2.53;1.27;;;19.70;52.80;;;;;;5052144;28;20191;-55
2023/03/31 00:18:05;;;;;;;1.70;1.40;;;19.70;52.80;;;;;;5043853;28;20195;-52
2023/03/31 00:20:36;;;;;;;2.08;1.23;;;19.80;52.80;;;;;;5037070;28;20249;-50
2023/03/31 00:23:09;;;;;;;1.80;1.20;;;19.80;52.80;;;;;;5047425;28;20642;-53
2023/03/31 00:25:43;;;;;;;2.47;1.40;;;19.80;52.80;;;;;;5034713;28;20239;-54
2023/03/31 00:28:13;;;;;;;1.70;1.17;;;19.80;52.80;;;;;;5047186;28;20191;-51
2023/03/31 00:30:46;;;;;;;2.05;1.40;;;19.90;52.80;;;;;;5032339;28;20203;-51
2023/03/31 00:33:17;;;;;;;2.63;1.42;;;19.90;52.90;;;;;;5034088;28;20288;-57
2023/03/31 00:35:52;;;;;;;2.83;1.27;;;19.90;52.90;;;;;;5033532;28;20234;-56
2023/03/31 00:38:22;;;;;;;2.17;1.10;;;20.00;53.00;;;;;;5038024;28;20191;-55
2023/03/31 00:40:53;;;;;;;2.47;1.25;;;20.00;53.00;;;;;;5053475;28;20206;-55
2023/03/31 00:43:34;;;;;;;1.00;0.88;;;20.00;53.00;;;;;;5050939;28;20234;-53
2023/03/31 00:46:16;;;;;;;2.45;1.20;;;20.10;53.00;;;;;;5034017;28;20203;-57
2023/03/31 00:48:51;;;;;;;1.85;1.15;;;20.10;53.10;;;;;;5032779;28;20255;-55
2023/03/31 00:51:23;;;;;;;2.88;1.55;;;20.20;53.20;;;;;;5033883;28;20282;-56
2023/03/31 00:53:58;;;;;;;2.05;1.13;;;20.20;53.80;;;;;;5048654;28;20185;-56
2023/03/31 00:56:32;;;;;;;2.78;1.58;;;20.20;53.10;;;;;;5039560;28;20695;-55
2023/03/31 00:59:06;;;;;;;2.10;1.38;;;20.20;53.00;;;;;;5033428;28;20588;-54
2023/03/31 01:01:41;;;;;;;5.18;1.38;;;20.30;53.00;;;;;;5032928;28;20195;-55
2023/03/31 01:04:15;;;;;;;2.03;1.00;;;20.30;53.60;;;;;;5033307;28;20231;-57
2023/03/31 01:06:56;;;;;;;2.83;1.20;;;20.30;53.00;;;;;;5037663;28;20207;-53
2023/03/31 01:09:29;;;;;;;2.15;1.00;;;20.40;53.00;;;;;;5033510;28;20216;-51
2023/03/31 01:12:00;;;;;;;2.72;1.10;;;20.40;53.10;;;;;;5034010;28;20200;-52
2023/03/31 01:14:32;;;;;;;1.80;1.10;;;20.50;53.20;;;;;;5033259;28;20199;-56
2023/03/31 01:17:08;;;;;;;3.08;1.17;;;20.50;53.30;;;;;;5032752;28;20195;-56
2023/03/31 01:19:53;;;;;;;1.48;0.90;;;20.50;53.30;;;;;;5033040;28;20216;-56
2023/03/31 01:23:10;;;;;;;1.55;0.90;;;20.60;53.30;;;;;;5033597;28;20188;-54
2023/03/31 01:26:26;;;;;;;1.50;1.00;;;20.60;53.30;;;;;;5040300;28;20608;-54
2023/03/31 01:29:00;;;;;;;1.85;0.95;;;20.60;53.20;;;;;;4971857;28;20222;-55
2023/03/31 01:32:10;;;;;;;2.30;1.00;;;20.70;53.30;;;;;;4971671;28;20194;-54
2023/03/31 01:35:19;;;;;;;2.13;0.98;;;20.70;53.30;;;;;;5024134;28;20574;-57
2023/03/31 01:38:26;;;;;;;2.15;1.08;;;20.70;53.10;;;;;;5030128;28;20195;-51
2023/03/31 01:41:23;;;;;;;1.85;1.10;;;20.80;53.10;;;;;;5008059;28;20207;-54
2023/03/31 01:44:00;;;;;;;1.83;1.15;;;20.80;53.10;;;;;;5032197;28;20224;-56
2023/03/31 01:46:35;;;;;;;1.58;0.90;;;20.80;53.10;;;;;;5031932;28;20203;-55
2023/03/31 01:49:16;;;;;;;1.17;0.88;;;20.90;53.20;;;;;;5031927;28;20208;-53
2023/03/31 01:51:52;;;;;;;1.85;1.15;;;20.90;53.20;;;;;;5032409;28;20674;-54
2023/03/31 01:54:25;;;;;;;2.05;1.00;;;20.90;53.10;;;;;;5041195;28;20237;-53
2023/03/31 01:57:01;;;;;;;2.55;1.08;;;21.00;53.10;;;;;;5051460;28;20282;-52
2023/03/31 01:59:36;;;;;;;1.45;1.00;;;21.00;53.20;;;;;;5032385;28;20223;-54
2023/03/31 02:02:10;;;;;;;1.00;0.85;;;21.00;53.30;;;;;;5033188;28;20600;-56
2023/03/31 02:04:44;;;;;;;1.92;1.30;;;21.10;53.30;;;;;;5047982;28;20231;-56
2023/03/31 02:07:18;;;;;;;1.98;1.10;;;21.10;53.30;;;;;;5037643;28;20199;-55
2023/03/31 02:09:52;;;;;;;2.80;1.17;;;21.10;53.30;;;;;;5051844;28;20227;-54
2023/03/31 02:12:27;;;;;;;2.35;1.15;;;21.10;53.30;;;;;;5032191;28;20215;-57
2023/03/31 02:15:00;;;;;;;3.65;1.45;;;21.20;53.20;;;;;;5052365;28;20282;-54
2023/03/31 02:17:31;;;;;;;3.42;1.20;;;21.20;53.20;;;;;;5048547;28;20191;-54
2023/03/31 02:20:10;;;;;;;2.47;1.30;;;21.20;53.20;;;;;;5031655;28;20239;-56
2023/03/31 02:22:44;;;;;;;1.75;1.10;;;21.30;53.10;;;;;;5036906;28;20278;-54
2023/03/31 02:25:18;;;;;;;2.60;1.10;;;21.30;53.00;;;;;;5051215;28;20204;-55
2023/03/31 02:27:55;;;;;;;1.73;1.13;;;21.30;52.90;;;;;;5045620;28;20196;-53
2023/03/31 02:30:31;;;;;;;2.78;1.23;;;21.40;53.00;;;;;;5031427;28;20688;-56
2023/03/31 02:33:03;;;;;;;1.73;1.10;;;21.50;52.90;;;;;;5031777;28;20192;-54
2023/03/31 02:35:35;;;;;;;1.73;1.10;;;21.50;52.90;;;;;;5031959;28;20278;-52
2023/03/31 02:38:07;;;;;;;2.03;1.23;;;21.50;53.10;;;;;;5031290;28;20730;-56
2023/03/31 02:40:38;;;;;;;2.95;1.23;;;21.60;52.90;;;;;;5031516;28;20196;-56
2023/03/31 02:43:10;;;;;;;2.30;1.35;;;21.60;52.80;;;;;;5031390;28;20188;-55
2023/03/31 02:45:46;;;;;;;2.03;1.10;;;21.60;52.80;;;;;;5031158;28;20204;-57
2023/03/31 02:48:20;;;;;;;1.42;1.05;;;21.70;52.70;;;;;;5036547;28;20191;-53
2023/03/31 02:51:15;;;;;;;3.95;1.52;;;21.70;52.70;;;;;;5050855;28;20200;-56
2023/03/31 02:53:58;;;;;;;1.70;1.05;;;21.70;52.60;;;;;;5047398;28;20187;-56
2023/03/31 02:56:52;;;;;;;2.15;1.20;;;21.80;52.50;;;;;;5035538;28;20203;-53
2023/03/31 02:59:36;;;;;;;3.90;1.23;;;21.80;52.50;;;;;;5051104;28;20215;-54
2023/03/31 03:02:19;;;;;;;2.60;1.25;;;21.80;52.50;;;;;;5050790;28;20613;-54
2023/03/31 03:05:23;;;;;;;3.60;1.25;;;21.90;52.50;;;;;;5031340;28;20270;-57
2023/03/31 03:08:06;;;;;;;3.55;1.63;;;21.90;52.40;;;;;;5030799;28;20194;-56
2023/03/31 03:10:46;;;;;;;3.10;1.40;;;21.90;52.30;;;;;;5037513;28;20199;-56
2023/03/31 03:13:23;;;;;;;3.47;1.50;;;22.00;52.40;;;;;;5050220;28;20195;-57
2023/03/31 03:16:02;;;;;;;1.70;1.20;;;22.00;52.30;;;;;;5050376;28;20206;-55
2023/03/31 03:18:33;;;;;;;2.75;1.30;;;22.00;52.30;;;;;;5050164;28;20212;-58
2023/03/31 03:21:03;;;;;;;3.53;1.50;;;22.10;52.40;;;;;;5050888;28;20651;-55
2023/03/31 03:23:34;;;;;;;2.40;1.40;;;22.10;52.30;;;;;;5050775;28;20221;-58
2023/03/31 03:26:05;;;;;;;3.47;1.50;;;22.10;52.30;;;;;;5050461;28;20627;-58
2023/03/31 03:28:35;;;;;;;3.35;1.38;;;22.20;52.20;;;;;;5040434;28;20794;-57
2023/03/31 03:31:08;;;;;;;2.78;1.20;;;22.20;52.20;;;;;;5030232;28;20207;-58
2023/03/31 03:33:38;;;;;;;3.92;1.45;;;22.20;52.20;;;;;;5036393;28;20203;-55
2023/03/31 03:36:10;;;;;;;2.70;1.23;;;22.20;52.10;;;;;;5031030;28;20204;-57
2023/03/31 03:38:40;;;;;;;2.75;1.40;;;22.20;52.10;;;;;;5031336;28;20553;-57
2023/03/31 03:41:11;;;;;;;2.72;1.25;;;22.30;52.00;;;;;;5030579;28;20203;-56
2023/03/31 03:43:42;;;;;;;3.03;1.70;;;22.30;51.90;;;;;;5030775;28;20216;-55
2023/03/31 03:46:14;;;;;;;3.28;1.50;;;22.40;52.00;;;;;;5030546;28;20207;-53
2023/03/31 03:48:45;;;;;;;3.20;1.48;;;22.40;51.80;;;;;;5030645;28;20228;-55
2023/03/31 03:51:15;;;;;;;2.35;1.38;;;22.40;51.70;;;;;;5031902;28;20208;-57
2023/03/31 03:53:46;;;;;;;1.98;1.23;;;22.40;51.60;;;;;;5045165;28;20250;-57
2023/03/31 03:56:17;;;;;;;4.28;1.30;;;22.50;51.50;;;;;;5050601;28;20207;-58
2023/03/31 03:58:47;;;;;;;1.85;0.98;;;22.50;51.50;;;;;;5049927;28;20207;-56
2023/03/31 04:01:20;;;;;;;2.38;1.10;;;22.50;51.40;;;;;;5050378;28;20199;-55
2023/03/31 04:03:51;;;;;;;2.50;1.25;;;22.50;51.40;;;;;;5052642;28;20211;-56
2023/03/31 04:06:21;;;;;;;3.00;1.38;;;22.60;51.40;;;;;;5050596;28;20659;-56
2023/03/31 04:08:52;;;;;;;1.67;1.13;;;22.60;51.40;;;;;;5041476;28;20208;-56
2023/03/31 04:11:23;;;;;;;2.33;1.20;;;22.60;51.50;;;;;;5030283;28;20216;-57
2023/03/31 04:13:53;;;;;;;3.60;1.23;;;22.60;51.50;;;;;;5039115;28;20200;-57
2023/03/31 04:16:26;;;;;;;4.07;1.40;;;22.60;51.40;;;;;;5036744;28;20200;-54
2023/03/31 04:18:57;;;;;;;2.42;1.13;;;22.60;51.30;;;;;;5030538;28;20215;-57
2023/03/31 04:21:29;;;;;;;3.15;1.38;;;22.70;51.40;;;;;;5029502;28;20204;-56
2023/03/31 04:24:00;;;;;;;2.85;1.27;;;22.70;51.20;;;;;;5041531;28;20715;-56
2023/03/31 04:26:37;;;;;;;2.80;1.20;;;22.70;51.30;;;;;;5048724;28;20204;-55
2023/03/31 04:29:08;;;;;;;1.45;1.23;;;22.70;51.10;;;;;;5043614;28;20587;-56
2023/03/31 04:31:41;;;;;;;2.00;1.30;;;22.80;51.00;;;;;;5053916;28;20566;-55
2023/03/31 04:34:14;;;;;;;2.85;1.17;;;22.80;50.90;;;;;;5053853;28;20253;-56
2023/03/31 04:36:47;;;;;;;2.60;1.30;;;22.80;51.50;;;;;;5050513;28;20238;-54
2023/03/31 04:39:23;;;;;;;2.83;1.20;;;22.80;51.00;;;;;;5055543;28;20676;-56
2023/03/31 04:41:53;;;;;;;1.85;1.00;;;22.90;51.00;;;;;;5072913;28;20240;-56
2023/03/31 04:44:24;;;;;;;3.53;1.10;;;22.90;50.90;;;;;;5050536;28;20220;-56
2023/03/31 04:46:57;;;;;;;2.80;1.10;;;22.90;50.90;;;;;;5033551;28;20201;-57
2023/03/31 04:49:28;;;;;;;2.15;1.30;;;22.90;50.90;;;;;;5046852;28;20211;-57
2023/03/31 04:51:59;;;;;;;3.88;1.50;;;22.90;50.80;;;;;;5052831;28;20196;-58
2023/03/31 04:54:29;;;;;;;2.47;1.35;;;22.90;50.80;;;;;;5041888;28;20644;-57
2023/03/31 04:57:00;;;;;;;2.50;1.30;;;22.90;50.70;;;;;;5043957;28;20200;-58
2023/03/31 04:59:31;;;;;;;2.30;1.02;;;23.00;50.70;;;;;;5052328;28;20219;-57
2023/03/31 05:02:03;;;;;;;2.67;1.13;;;23.00;50.70;;;;;;5044722;28;20199;-56
2023/03/31 05:04:34;;;;;;;2.30;1.20;;;23.00;50.60;;;;;;5044214;28;20223;-57
2023/03/31 05:07:05;;;;;;;2.67;1.30;;;23.00;50.50;;;;;;5053123;28;20202;-58
2023/03/31 05:09:35;;;;;;;1.75;1.20;;;23.00;50.50;;;;;;5051388;28;20215;-58
2023/03/31 05:12:06;;;;;;;2.53;1.42;;;23.00;50.50;;;;;;5035314;28;20203;-58
2023/03/31 05:14:37;;;;;;;2.97;1.08;;;23.00;50.50;;;;;;5043730;28;20203;-58
2023/03/31 05:17:10;;;;;;;2.70;1.30;;;23.00;50.50;;;;;;5052653;28;20195;-58
2023/03/31 05:19:40;;;;;;;2.28;1.40;;;23.00;50.50;;;;;;5052201;28;20219;-57
2023/03/31 05:22:11;;;;;;;5.18;1.88;;;23.00;50.50;;;;;;5052569;28;20663;-58
2023/03/31 05:24:42;;;;;;;3.95;1.58;;;23.00;50.30;;;;;;5052095;28;20250;-54
2023/03/31 05:27:12;;;;;;;4.15;1.52;;;23.00;50.30;;;;;;5052388;28;20215;-57
2023/03/31 05:29:43;;;;;;;4.88;1.77;;;23.10;50.40;;;;;;5053016;28;20725;-57
2023/03/31 05:32:15;;;;;;;3.17;1.33;;;23.10;50.50;;;;;;5052679;28;20559;-58
2023/03/31 05:34:46;;;;;;;5.93;1.60;;;23.10;50.60;;;;;;5051760;28;20192;-57
2023/03/31 05:37:17;;;;;;;3.65;1.92;;;23.10;50.60;;;;;;5052267;28;20195;-57
2023/03/31 05:39:47;;;;;;;4.28;1.50;;;23.10;50.70;;;;;;5051626;28;20223;-56
2023/03/31 05:42:18;;;;;;;4.30;1.45;;;23.10;50.70;;;;;;5052089;28;20195;-56
2023/03/31 05:44:49;;;;;;;3.92;1.50;;;23.10;50.70;;;;;;5051302;28;20219;-56
2023/03/31 05:47:22;;;;;;;2.85;1.50;;;23.10;50.70;;;;;;5052036;28;20832;-56
2023/03/31 05:49:55;;;;;;;6.00;1.80;;;23.10;50.70;;;;;;5051728;28;20211;-57
2023/03/31 05:52:25;;;;;;;3.20;1.52;;;23.10;50.60;;;;;;5051954;28;20679;-56
2023/03/31 05:54:56;;;;;;;4.00;1.60;;;23.10;50.50;;;;;;5039263;28;20564;-55
2023/03/31 05:57:27;;;;;;;3.70;1.40;;;23.10;50.40;;;;;;5045923;28;20226;-57
2023/03/31 05:59:57;;;;;;;4.35;1.55;;;23.00;50.40;;;;;;5051882;28;20215;-56
2023/03/31 06:02:30;;;;;;;5.70;1.60;;;23.00;50.30;;;;;;5052308;28;20192;-57
2023/03/31 06:05:01;;;;;;;4.05;1.75;;;23.00;50.30;;;;;;5051923;28;20219;-56
2023/03/31 06:07:31;;;;;;;3.45;1.35;;;23.00;50.20;;;;;;5051718;28;20587;-57
2023/03/31 06:10:02;;;;;;;2.67;1.10;;;23.00;50.20;;;;;;5050683;28;20211;-58
2023/03/31 06:12:35;;;;;;;3.53;1.75;;;23.00;50.20;;;;;;5052832;28;20203;-58
2023/03/31 06:15:05;;;;;;;4.35;1.60;;;23.00;50.30;;;;;;5044720;28;20192;-57
2023/03/31 06:17:38;;;;;;;3.50;1.17;;;22.90;50.20;;;;;;5031440;28;20192;-56
2023/03/31 06:20:09;;;;;;;3.60;1.52;;;23.00;50.30;;;;;;5031886;28;20208;-57
2023/03/31 06:22:40;;;;;;;3.28;1.70;;;22.90;50.30;;;;;;5030890;28;20242;-56
2023/03/31 06:25:11;;;;;;;5.28;2.15;;;22.90;50.30;;;;;;5031686;28;20220;-58
2023/03/31 06:27:42;;;;;;;2.15;1.20;;;22.90;50.30;;;;;;5048183;28;20207;-58
2023/03/31 06:30:13;;;;;;;2.85;1.55;;;22.90;50.30;;;;;;5051737;28;20223;-56
2023/03/31 06:32:46;;;;;;;4.03;1.35;;;22.90;50.30;;;;;;5051928;28;20203;-56
2023/03/31 06:35:16;;;;;;;2.20;1.30;;;22.90;50.20;;;;;;5051745;28;20656;-57
2023/03/31 06:37:47;;;;;;;3.05;1.40;;;22.90;50.20;;;;;;5051313;28;20206;-55
2023/03/31 06:40:18;;;;;;;3.65;1.55;;;22.80;50.20;;;;;;5051205;28;20212;-57
2023/03/31 06:42:49;;;;;;;2.20;1.30;;;22.80;50.20;;;;;;5051247;28;20820;-55
2023/03/31 06:45:20;;;;;;;2.70;1.35;;;22.80;50.20;;;;;;5051522;28;20227;-58
2023/03/31 06:47:52;;;;;;;2.40;1.27;;;22.80;50.10;;;;;;5052010;28;20195;-57
2023/03/31 06:50:23;;;;;;;3.45;1.50;;;22.70;50.20;;;;;;5050925;28;20227;-54
2023/03/31 06:52:54;;;;;;;2.25;1.38;;;22.70;50.10;;;;;;5051711;28;20192;-57
2023/03/31 06:55:24;;;;;;;4.63;1.70;;;22.70;50.20;;;;;;5051556;28;20609;-56
2023/03/31 06:57:55;;;;;;;2.13;1.20;;;22.70;50.20;;;;;;5051027;28;20199;-57
2023/03/31 07:00:26;;;;;;;2.85;1.48;;;22.60;50.20;;;;;;5036266;28;20216;-55
2023/03/31 07:02:58;;;;;;;2.25;1.17;;;22.60;50.20;;;;;;5031480;28;20219;-56
2023/03/31 07:05:29;;;;;;;2.58;1.35;;;22.60;50.20;;;;;;5031145;28;20227;-57
2023/03/31 07:08:01;;;;;;;2.75;1.25;;;22.60;50.80;;;;;;5031099;28;20870;-57
2023/03/31 07:10:33;;;;;;;3.15;1.40;;;22.60;50.20;;;;;;5031121;28;20220;-55
2023/03/31 07:13:04;;;;;;;2.58;1.17;;;22.50;50.20;;;;;;5031249;28;20609;-59
2023/03/31 07:15:34;;;;;;;1.75;1.08;;;22.60;50.20;;;;;;5030728;28;20571;-57
2023/03/31 07:18:07;;;;;;;2.90;1.40;;;22.50;50.10;;;;;;5030835;28;20215;-57
2023/03/31 07:20:38;;;;;;;2.65;1.30;;;22.50;50.10;;;;;;5031245;28;20228;-56
2023/03/31 07:23:09;;;;;;;3.03;1.60;;;22.50;50.10;;;;;;5030768;28;20195;-56
2023/03/31 07:25:40;;;;;;;2.20;1.00;;;22.50;50.10;;;;;;5030986;28;20560;-56
2023/03/31 07:28:10;;;;;;;2.85;1.50;;;22.50;50.20;;;;;;5031048;28;20200;-58
2023/03/31 07:30:42;;;;;;;3.50;1.42;;;22.40;50.10;;;;;;5030715;28;20192;-56
2023/03/31 07:33:14;;;;;;;3.35;1.30;;;22.40;50.10;;;;;;5030927;28;20261;-58
2023/03/31 07:35:45;;;;;;;2.35;1.48;;;22.40;50.20;;;;;;5031153;28;20651;-57
2023/03/31 07:38:16;;;;;;;2.55;1.77;;;22.40;50.20;;;;;;5031204;28;20675;-59
2023/03/31 07:40:47;;;;;;;2.88;1.30;;;22.30;50.20;;;;;;5030634;28;20204;-58
2023/03/31 07:43:18;;;;;;;2.40;1.30;;;22.30;50.20;;;;;;5030260;28;20196;-57
2023/03/31 07:45:48;;;;;;;4.45;1.45;;;22.30;50.20;;;;;;5030468;28;20220;-56
2023/03/31 07:48:21;;;;;;;3.58;1.60;;;22.30;50.20;;;;;;5030803;28;20671;-54
2023/03/31 07:50:52;;;;;;;2.75;1.50;;;22.30;50.20;;;;;;5031084;28;20199;-57
2023/03/31 07:53:23;;;;;;;2.78;1.10;;;22.20;50.20;;;;;;5031303;28;20614;-58
2023/03/31 07:55:53;;;;;;;2.97;1.40;;;22.20;50.10;;;;;;5032590;28;20203;-57
2023/03/31 07:58:24;;;;;;;2.35;1.20;;;22.20;50.10;;;;;;5051994;28;20199;-56
2023/03/31 08:00:54;;;;;;;1.55;1.10;;;22.20;50.20;;;;;;5054819;28;20732;-57
2023/03/31 08:03:27;;;;;;;2.35;1.30;;;22.20;50.20;;;;;;5054680;28;20585;-56
2023/03/31 08:05:58;;;;;;;1.85;1.30;;;22.10;50.10;;;;;;5054542;28;20227;-58
2023/03/31 08:08:29;;;;;;;2.10;1.17;;;22.10;50.10;;;;;;5044188;28;20663;-58
2023/03/31 08:11:00;;;;;;;2.50;1.30;;;22.10;50.20;;;;;;5054956;28;20218;-57
2023/03/31 08:13:30;;;;;;;1.67;1.00;;;22.00;50.20;;;;;;5055436;28;20187;-58
2023/03/31 08:16:01;;;;;;;1.75;1.10;;;22.00;50.20;;;;;;5054551;28;20598;-57
2023/03/31 08:18:34;;;;;;;2.20;1.30;;;22.00;50.20;;;;;;5054737;28;20589;-50
2023/03/31 08:21:04;;;;;;;2.33;1.40;;;22.00;50.20;;;;;;5054448;28;20199;-57
2023/03/31 08:23:35;;;;;;;3.30;1.70;;;22.00;50.20;;;;;;5054179;28;20202;-55
2023/03/31 08:26:13;;;;;;;3.10;1.45;;;21.90;50.20;;;;;;5054323;28;20227;-54
2023/03/31 08:28:44;;;;;;;2.40;1.10;;;21.90;50.20;;;;;;5054388;28;20606;-54
2023/03/31 08:31:15;;;;;;;3.28;1.45;;;21.90;50.20;;;;;;5054397;28;20203;-54
2023/03/31 08:33:48;;;;;;;3.30;1.65;;;21.90;50.20;;;;;;5054293;28;20230;-55
2023/03/31 08:36:18;;;;;;;3.40;1.27;;;21.80;50.10;;;;;;5053892;28;20207;-54
2023/03/31 08:38:49;;;;;;;3.78;1.50;;;21.90;50.20;;;;;;5053831;28;20224;-55
2023/03/31 08:41:46;;;;;;;3.47;1.38;;;21.80;50.20;;;;;;5053792;28;20651;-56
2023/03/31 08:44:22;;;;;;;2.47;1.40;;;21.80;50.20;;;;;;5053594;28;20203;-56
2023/03/31 08:46:56;;;;;;;2.40;1.58;;;21.70;50.20;;;;;;5054325;28;20223;-57
2023/03/31 08:49:30;;;;;;;2.47;1.23;;;21.70;50.10;;;;;;5070566;28;20233;-55
2023/03/31 08:52:04;;;;;;;2.08;1.40;;;21.70;50.20;;;;;;5073434;28;20206;-57
2023/03/31 08:54:38;;;;;;;2.30;1.50;;;21.70;50.20;;;;;;5064786;28;20188;-56
2023/03/31 08:57:17;;;;;;;1.92;1.10;;;21.70;50.30;;;;;;5045540;28;20281;-56
2023/03/31 08:59:49;;;;;;;2.17;1.20;;;21.70;50.30;;;;;;5053342;28;20211;-59
2023/03/31 09:02:31;;;;;;;3.47;1.23;;;21.60;50.30;;;;;;5053755;28;20199;-58
2023/03/31 09:05:24;;;;;;;2.42;1.27;;;21.60;50.30;;;;;;5048785;28;20214;-59
2023/03/31 09:08:06;;;;;;;2.92;1.45;;;21.60;50.30;;;;;;5049668;28;20687;-59
2023/03/31 09:10:47;;;;;;;3.00;1.40;;;21.60;50.30;;;;;;5048855;28;20191;-58
2023/03/31 09:13:47;;;;;;;3.42;1.30;;;21.60;50.30;;;;;;5033113;28;20207;-58
2023/03/31 09:16:19;;;;;;;3.78;1.15;;;21.60;50.40;;;;;;5008092;28;20208;-57
2023/03/31 09:18:51;;;;;;;1.60;1.50;;;21.50;50.30;;;;;;5032770;28;20265;-60
2023/03/31 09:21:28;;;;;;;2.58;1.27;;;21.50;50.30;;;;;;5033016;28;20679;-56
2023/03/31 09:24:04;;;;;;;2.50;1.40;;;21.40;50.30;;;;;;5032596;28;20659;-57
2023/03/31 09:26:41;;;;;;;2.67;1.50;;;21.40;50.30;;;;;;5039639;28;20219;-57
2023/03/31 09:29:18;;;;;;;2.72;1.38;;;21.40;50.30;;;;;;5052491;28;20211;-57
2023/03/31 09:31:49;;;;;;;3.03;1.65;;;21.40;50.40;;;;;;5051985;28;20195;-57
2023/03/31 09:34:25;;;;;;;2.10;1.50;;;21.30;50.30;;;;;;5052701;28;20192;-59
2023/03/31 09:36:58;;;;;;;2.25;1.10;;;21.30;50.40;;;;;;5052840;28;20198;-57
2023/03/31 09:39:29;;;;;;;3.80;1.60;;;21.30;50.40;;;;;;5052530;28;20220;-56
2023/03/31 09:41:59;;;;;;;1.67;1.15;;;21.30;50.40;;;;;;5051869;28;20210;-59
2023/03/31 09:44:35;;;;;;;1.50;1.02;;;21.30;50.50;;;;;;5052218;28;20211;-59
2023/03/31 09:47:07;;;;;;;2.25;1.30;;;21.30;50.40;;;;;;5051966;28;20222;-58
2023/03/31 09:49:39;;;;;;;1.95;1.20;;;21.20;50.40;;;;;;5051822;28;20326;-58
2023/03/31 09:52:28;;;;;;;1.77;1.30;;;21.20;51.00;;;;;;5051466;28;20644;-58
2023/03/31 09:55:02;;;;;;;2.53;1.20;;;21.20;50.50;;;;;;5051551;28;20206;-59
2023/03/31 09:57:35;;;;;;;2.38;1.50;;;21.20;50.40;;;;;;5051189;28;20213;-59
2023/03/31 10:00:15;;;;;;;2.90;1.45;;;21.20;50.50;;;;;;5048062;28;20680;-58
2023/03/31 10:02:50;;;;;;;3.50;1.70;;;21.10;50.40;;;;;;5053272;28;20557;-58
2023/03/31 10:05:35;;;;;;;2.53;1.48;;;21.10;50.50;;;;;;5049063;28;20203;-59
2023/03/31 10:08:30;;;;;;;1.70;1.20;;;21.10;50.50;;;;;;5032348;28;20225;-58
2023/03/31 10:11:10;;;;;;;2.30;1.20;;;21.10;50.50;;;;;;5039266;28;20204;-59
2023/03/31 10:13:47;;;;;;;2.85;1.42;;;21.00;50.40;;;;;;5052582;28;20199;-59
2023/03/31 10:16:24;;;;;;;3.72;1.50;;;21.00;50.50;;;;;;5050928;28;20191;-58
2023/03/31 10:18:56;;;;;;;3.05;1.50;;;21.00;50.50;;;;;;5051792;28;20219;-57
2023/03/31 10:21:28;;;;;;;2.60;1.75;;;21.00;50.50;;;;;;5051093;28;20198;-58
2023/03/31 10:24:03;;;;;;;2.78;1.35;;;21.00;50.50;;;;;;5051095;28;20534;-58
2023/03/31 10:26:34;;;;;;;2.25;1.30;;;20.90;50.50;;;;;;5049439;28;20287;-59
2023/03/31 10:29:11;;;;;;;2.60;1.38;;;20.90;50.50;;;;;;5051943;28;20219;-59
2023/03/31 10:31:42;;;;;;;1.67;1.23;;;20.90;50.50;;;;;;5050737;28;20198;-59
2023/03/31 10:34:17;;;;;;;2.28;1.30;;;20.90;50.50;;;;;;5051897;28;20203;-58
2023/03/31 10:36:51;;;;;;;1.92;1.27;;;20.80;50.40;;;;;;5050868;28;20226;-58
2023/03/31 10:39:30;;;;;;;3.08;1.48;;;20.80;50.50;;;;;;5051707;28;20215;-56
2023/03/31 10:42:02;;;;;;;1.98;1.20;;;20.80;50.50;;;;;;5050575;28;20191;-58
2023/03/31 10:44:38;;;;;;;2.28;1.20;;;20.80;50.50;;;;;;5053993;28;20187;-58
2023/03/31 10:47:19;;;;;;;1.95;1.20;;;20.70;50.50;;;;;;5035749;28;20570;-57
2023/03/31 10:49:53;;;;;;;1.63;1.40;;;20.70;50.50;;;;;;5031122;28;20216;-58
2023/03/31 10:52:26;;;;;;;2.83;1.30;;;20.70;50.50;;;;;;5048185;28;20686;-56
2023/03/31 10:55:00;;;;;;;1.98;1.27;;;20.70;50.50;;;;;;5050643;28;20199;-58
2023/03/31 10:57:41;;;;;;;1.73;1.17;;;20.60;50.50;;;;;;5050135;28;20555;-57
2023/03/31 11:00:20;;;;;;;2.17;1.15;;;20.60;50.50;;;;;;5044501;28;20700;-58
2023/03/31 11:03:31;;;;;;;1.15;1.05;;;20.60;50.60;;;;;;5047278;28;20211;-56
2023/03/31 11:06:07;;;;;;;1.58;1.35;;;20.60;50.50;;;;;;5010995;28;20219;-58
2023/03/31 11:08:49;;;;;;;2.85;1.50;;;20.60;50.50;;;;;;5050915;28;20211;-58
2023/03/31 11:11:59;;;;;;;2.22;1.20;;;20.50;50.50;;;;;;5050556;28;20647;-59
2023/03/31 11:14:42;;;;;;;2.13;1.33;;;20.50;50.50;;;;;;5050864;28;20662;-59
2023/03/31 11:17:27;;;;;;;1.50;1.20;;;20.50;50.50;;;;;;5050676;28;20667;-57
2023/03/31 11:20:11;;;;;;;2.65;1.20;;;20.50;50.60;;;;;;5050852;28;20222;-59
2023/03/31 11:22:51;;;;;;;2.42;1.48;;;20.40;50.50;;;;;;5050372;28;20226;-58
2023/03/31 11:25:28;;;;;;;2.15;1.10;;;20.40;50.50;;;;;;5051318;28;20261;-58
2023/03/31 11:28:27;;;;;;;1.90;1.13;;;20.40;50.60;;;;;;5051142;28;20230;-58
2023/03/31 11:31:06;;;;;;;2.35;1.52;;;20.30;50.60;;;;;;5043567;28;20199;-59
2023/03/31 11:33:56;;;;;;;1.65;1.30;;;20.30;50.60;;;;;;5034106;28;20198;-57
2023/03/31 11:36:42;;;;;;;1.20;1.10;;;20.30;50.60;;;;;;5039058;28;20192;-58
2023/03/31 11:39:28;;;;;;;2.63;1.17;;;20.30;50.60;;;;;;5041063;28;20218;-56
2023/03/31 11:42:02;;;;;;;1.73;0.90;;;20.30;50.60;;;;;;5039479;28;20195;-57
2023/03/31 11:44:42;;;;;;;2.63;1.02;;;20.20;50.60;;;;;;5038879;28;20207;-57
2023/03/31 11:47:18;;;;;;;1.70;1.10;;;20.20;50.60;;;;;;5041278;28;20230;-58
2023/03/31 11:49:54;;;;;;;1.80;1.10;;;20.20;50.60;;;;;;5041069;28;20219;-59
2023/03/31 11:52:30;;;;;;;1.63;1.10;;;20.20;50.60;;;;;;5040370;28;20196;-58
2023/03/31 11:55:04;;;;;;;1.58;1.13;;;20.10;50.60;;;;;;5041901;28;20227;-58
2023/03/31 11:57:38;;;;;;;2.30;1.40;;;20.10;50.60;;;;;;5039448;28;20259;-54
2023/03/31 12:00:17;;;;;;;2.95;2.00;;;20.10;50.80;;;;;;5039698;28;20207;-58
2023/03/31 12:02:54;;;;;;;7.32;1.55;;;20.10;51.50;;;;;;5042523;28;20241;-53
2023/03/31 12:05:26;;;;;;;5.07;1.60;;;20.10;51.50;;;;;;5050923;28;20195;-57
2023/03/31 12:08:04;;;;;;;3.60;1.40;;;20.10;51.30;;;;;;5037959;28;20306;-57
2023/03/31 12:10:38;;;;;;;2.63;1.50;;;20.10;51.30;;;;;;5038723;28;20207;-57
2023/03/31 12:13:26;;;;;;;3.15;1.42;;;20.10;51.20;;;;;;5039215;28;20196;-56
2023/03/31 12:16:05;;;;;;;4.65;1.58;;;20.10;51.20;;;;;;5038970;28;20192;-54
2023/03/31 12:18:42;;;;;;;3.38;1.70;;;20.10;51.20;;;;;;5038537;28;20211;-55
2023/03/31 12:21:13;;;;;;;4.35;1.27;;;20.10;51.20;;;;;;5038478;28;20195;-55
2023/03/31 12:23:46;;;;;;;3.90;1.70;;;20.10;51.20;;;;;;5039240;28;20188;-57
2023/03/31 12:26:35;;;;;;;4.93;2.33;;;20.10;51.20;;;;;;5037935;28;20224;-58
2023/03/31 12:29:15;;;;;;;6.57;2.03;;;20.10;52.00;;;;;;5040096;28;20240;-56
2023/03/31 12:31:50;;;;;;;4.35;2.10;;;20.00;51.40;;;;;;5039495;28;20200;-54
2023/03/31 12:34:23;;;;;;;2.70;1.63;;;20.00;51.40;;;;;;5038635;28;20575;-58
2023/03/31 12:37:11;;;;;;;3.80;1.83;;;20.00;51.40;;;;;;5030589;28;20601;-57
2023/03/31 12:39:55;;;;;;;3.60;1.67;;;19.90;51.40;;;;;;5030525;28;20220;-56
2023/03/31 12:42:49;;;;;;;5.97;1.85;;;19.90;51.40;;;;;;5030781;28;20200;-57
2023/03/31 12:45:28;;;;;;;5.10;2.42;;;19.90;51.50;;;;;;5033300;28;20192;-57
2023/03/31 12:48:29;;;;;;;3.25;2.33;;;19.90;51.50;;;;;;5034071;28;20232;-55
2023/03/31 12:51:11;;;;;;;3.85;2.20;;;19.90;51.50;;;;;;5047006;28;20677;-55
2023/03/31 12:54:02;;;;;;;7.97;2.75;;;19.90;51.50;;;;;;5054241;28;20591;-55
2023/03/31 12:57:06;;;;;;;6.18;2.92;;;19.80;51.50;;;;;;5053697;28;20203;-57
2023/03/31 12:59:38;;;;;;;4.97;2.70;;;19.80;51.70;;;;;;5053772;28;20237;-53
2023/03/31 13:02:27;;;;;;;3.60;2.60;;;19.80;51.70;;;;;;5048015;28;20196;-53
2023/03/31 13:04:59;;;;;;;4.80;2.60;;;19.80;51.80;;;;;;5033483;28;20197;-56
2023/03/31 13:07:43;;;;;;;4.82;2.22;;;19.80;51.90;;;;;;5033550;28;20230;-55
2023/03/31 13:10:31;;;;;;;4.20;2.60;;;19.70;51.80;;;;;;5033002;28;20212;-57
2023/03/31 13:13:07;;;;;;;5.47;2.70;;;19.70;51.80;;;;;;5034059;28;20204;-56
2023/03/31 13:15:38;;;;;;;4.88;2.60;;;19.70;51.80;;;;;;5033618;28;20200;-55
2023/03/31 13:18:19;;;;;;;4.55;2.42;;;19.70;51.80;;;;;;5033144;28;20652;-55
2023/03/31 13:21:01;;;;;;;5.97;2.70;;;19.70;51.80;;;;;;5033506;28;20196;-55
2023/03/31 13:23:35;;;;;;;5.90;2.13;;;19.60;51.70;;;;;;5033571;28;20200;-55
2023/03/31 13:26:06;;;;;;;3.50;2.22;;;19.60;51.70;;;;;;5036688;28;20617;-54
2023/03/31 13:28:41;;;;;;;4.90;2.25;;;19.60;51.70;;;;;;5053047;28;20231;-55
2023/03/31 13:31:13;;;;;;;4.60;2.78;;;19.60;51.80;;;;;;5052857;28;20250;-57